sensor_id;sensor_type;location;lat;lon;timestamp;temperature;humidity
285;DHT22;127;48.770;9.212;2023-02-28T00:01:46;-3.00;99.90
285;DHT22;127;48.770;9.212;2023-02-28T00:04:14;-3.00;99.90
285;DHT22;127;48.770;9.212;2023-02-28T00:06:43;-3.10;99.90
285;DHT22;127;48.770;9.212;2023-02-28T00:09:12;-3.20;99.90
285;DHT22;127;48.770;9.212;2023-02-28T00:11:43;-3.20;99.90
285;DHT22;127;48.770;9.212;2023-02-28T00:14:11;-3.20;99.90
285;DHT22;127;48.770;9.212;2023-02-28T00:16:40;-3.30;99.90
285;DHT22;127;48.770;9.212;2023-02-28T00:19:09;-3.30;99.90
285;DHT22;127;48.770;9.212;2023-02-28T00:21:38;-3.30;99.90
285;DHT22;127;48.770;9.212;2023-02-28T00:24:08;-3.30;99.90
285;DHT22;127;48.770;9.212;2023-02-28T00:26:37;-3.30;99.90
285;DHT22;127;48.770;9.212;2023-02-28T00:29:08;-3.30;99.90
285;DHT22;127;48.770;9.212;2023-02-28T00:31:36;-3.40;99.90
285;DHT22;127;48.770;9.212;2023-02-28T00:34:05;-3.40;99.90
285;DHT22;127;48.770;9.212;2023-02-28T00:36:34;-3.40;99.90
285;DHT22;127;48.770;9.212;2023-02-28T00:39:02;-3.50;99.90
285;DHT22;127;48.770;9.212;2023-02-28T00:41:31;-3.50;99.90
285;DHT22;127;48.770;9.212;2023-02-28T00:43:59;-3.50;99.90
285;DHT22;127;48.770;9.212;2023-02-28T00:46:31;-3.50;99.90
285;DHT22;127;48.770;9.212;2023-02-28T00:48:59;-3.60;99.90
285;DHT22;127;48.770;9.212;2023-02-28T00:51:28;-3.60;99.90
285;DHT22;127;48.770;9.212;2023-02-28T00:53:57;-3.60;99.90
285;DHT22;127;48.770;9.212;2023-02-28T00:56:25;-3.60;99.90
285;DHT22;127;48.770;9.212;2023-02-28T00:58:54;-3.60;99.90
285;DHT22;127;48.770;9.212;2023-02-28T01:01:22;-3.70;99.90
285;DHT22;127;48.770;9.212;2023-02-28T01:03:54;-3.60;99.90
285;DHT22;127;48.770;9.212;2023-02-28T01:06:22;-3.70;99.90
285;DHT22;127;48.770;9.212;2023-02-28T01:08:51;-3.60;99.90
285;DHT22;127;48.770;9.212;2023-02-28T01:11:20;-3.70;99.90
285;DHT22;127;48.770;9.212;2023-02-28T01:13:48;-3.70;99.90
285;DHT22;127;48.770;9.212;2023-02-28T01:16:17;-3.70;99.90
285;DHT22;127;48.770;9.212;2023-02-28T01:18:45;-3.70;99.90
285;DHT22;127;48.770;9.212;2023-02-28T01:21:19;-3.70;99.90
285;DHT22;127;48.770;9.212;2023-02-28T01:23:48;-3.70;99.90
285;DHT22;127;48.770;9.212;2023-02-28T01:26:19;-3.70;99.90
285;DHT22;127;48.770;9.212;2023-02-28T01:28:48;-3.70;99.90
285;DHT22;127;48.770;9.212;2023-02-28T01:31:18;-3.70;99.90
285;DHT22;127;48.770;9.212;2023-02-28T01:33:47;-3.70;99.90
285;DHT22;127;48.770;9.212;2023-02-28T01:36:20;-3.70;99.90
285;DHT22;127;48.770;9.212;2023-02-28T01:38:49;-3.80;99.90
285;DHT22;127;48.770;9.212;2023-02-28T01:41:21;-3.70;99.90
285;DHT22;127;48.770;9.212;2023-02-28T01:43:56;-3.80;99.90
285;DHT22;127;48.770;9.212;2023-02-28T01:46:25;-3.80;99.90
285;DHT22;127;48.770;9.212;2023-02-28T01:49:00;-3.70;99.90
285;DHT22;127;48.770;9.212;2023-02-28T01:51:37;-3.70;99.90
285;DHT22;127;48.770;9.212;2023-02-28T01:54:14;-3.70;99.90
285;DHT22;127;48.770;9.212;2023-02-28T01:56:46;-3.60;99.90
285;DHT22;127;48.770;9.212;2023-02-28T01:59:22;-3.60;99.90
285;DHT22;127;48.770;9.212;2023-02-28T02:01:53;-3.60;99.90
285;DHT22;127;48.770;9.212;2023-02-28T02:04:23;-3.50;99.90
285;DHT22;127;48.770;9.212;2023-02-28T02:06:56;-3.50;99.90
285;DHT22;127;48.770;9.212;2023-02-28T02:09:26;-3.50;99.90
285;DHT22;127;48.770;9.212;2023-02-28T02:11:56;-3.40;99.90
285;DHT22;127;48.770;9.212;2023-02-28T02:14:32;-3.40;99.90
285;DHT22;127;48.770;9.212;2023-02-28T02:17:15;-3.40;99.90
285;DHT22;127;48.770;9.212;2023-02-28T02:23:13;-3.30;99.90
285;DHT22;127;48.770;9.212;2023-02-28T02:25:53;-3.30;99.90
285;DHT22;127;48.770;9.212;2023-02-28T02:28:35;-3.20;99.90
285;DHT22;127;48.770;9.212;2023-02-28T02:40:10;-3.00;99.90
285;DHT22;127;48.770;9.212;2023-02-28T02:42:44;-3.00;99.90
285;DHT22;127;48.770;9.212;2023-02-28T02:45:21;-2.90;99.90
285;DHT22;127;48.770;9.212;2023-02-28T02:47:51;-2.90;99.90
285;DHT22;127;48.770;9.212;2023-02-28T02:50:26;-2.80;99.90
285;DHT22;127;48.770;9.212;2023-02-28T02:52:58;-2.80;99.90
285;DHT22;127;48.770;9.212;2023-02-28T02:55:31;-2.70;99.90
285;DHT22;127;48.770;9.212;2023-02-28T02:58:03;-2.80;99.90
285;DHT22;127;48.770;9.212;2023-02-28T03:00:35;-2.80;99.90
285;DHT22;127;48.770;9.212;2023-02-28T03:03:07;-2.80;99.90
285;DHT22;127;48.770;9.212;2023-02-28T03:05:42;-2.70;99.90
285;DHT22;127;48.770;9.212;2023-02-28T03:08:13;-2.60;99.90
285;DHT22;127;48.770;9.212;2023-02-28T03:10:44;-2.60;99.90
285;DHT22;127;48.770;9.212;2023-02-28T03:16:34;-2.60;99.90
285;DHT22;127;48.770;9.212;2023-02-28T03:19:19;-2.70;99.90
285;DHT22;127;48.770;9.212;2023-02-28T03:22:03;-2.70;99.90
285;DHT22;127;48.770;9.212;2023-02-28T03:24:39;-2.60;99.90
285;DHT22;127;48.770;9.212;2023-02-28T03:27:28;-2.50;99.90
285;DHT22;127;48.770;9.212;2023-02-28T03:30:03;-2.50;99.90
285;DHT22;127;48.770;9.212;2023-02-28T03:32:35;-2.50;99.90
285;DHT22;127;48.770;9.212;2023-02-28T03:35:09;-2.50;99.90
285;DHT22;127;48.770;9.212;2023-02-28T03:37:43;-2.50;99.90
285;DHT22;127;48.770;9.212;2023-02-28T03:40:15;-2.40;99.90
285;DHT22;127;48.770;9.212;2023-02-28T03:42:48;-2.40;99.90
285;DHT22;127;48.770;9.212;2023-02-28T03:45:20;-2.40;99.90
285;DHT22;127;48.770;9.212;2023-02-28T03:47:53;-2.40;99.90
285;DHT22;127;48.770;9.212;2023-02-28T03:50:25;-2.50;99.90
285;DHT22;127;48.770;9.212;2023-02-28T03:53:01;-2.40;99.90
285;DHT22;127;48.770;9.212;2023-02-28T03:55:34;-2.40;99.90
285;DHT22;127;48.770;9.212;2023-02-28T03:58:11;-2.30;99.90
285;DHT22;127;48.770;9.212;2023-02-28T04:00:44;-2.20;99.90
285;DHT22;127;48.770;9.212;2023-02-28T04:03:14;-2.20;99.90
285;DHT22;127;48.770;9.212;2023-02-28T04:05:51;-2.10;99.90
285;DHT22;127;48.770;9.212;2023-02-28T04:08:23;-2.00;99.90
285;DHT22;127;48.770;9.212;2023-02-28T04:10:56;-2.00;99.90
285;DHT22;127;48.770;9.212;2023-02-28T04:13:25;-2.00;99.90
285;DHT22;127;48.770;9.212;2023-02-28T04:15:54;-1.90;99.90
285;DHT22;127;48.770;9.212;2023-02-28T04:18:23;-1.90;99.90
285;DHT22;127;48.770;9.212;2023-02-28T04:20:51;-1.90;99.90
285;DHT22;127;48.770;9.212;2023-02-28T04:23:23;-1.90;99.90
285;DHT22;127;48.770;9.212;2023-02-28T04:25:54;-1.90;99.90
285;DHT22;127;48.770;9.212;2023-02-28T04:28:23;-1.90;99.90
285;DHT22;127;48.770;9.212;2023-02-28T04:30:55;-1.70;99.90
285;DHT22;127;48.770;9.212;2023-02-28T04:33:24;-1.70;99.90
285;DHT22;127;48.770;9.212;2023-02-28T04:35:58;-1.70;99.90
285;DHT22;127;48.770;9.212;2023-02-28T04:38:33;-1.60;99.90
285;DHT22;127;48.770;9.212;2023-02-28T04:41:03;-1.60;99.90
285;DHT22;127;48.770;9.212;2023-02-28T04:43:32;-1.60;99.90
285;DHT22;127;48.770;9.212;2023-02-28T04:46:02;-1.50;99.90
285;DHT22;127;48.770;9.212;2023-02-28T04:48:33;-1.40;99.90
285;DHT22;127;48.770;9.212;2023-02-28T04:51:03;-1.70;99.90
285;DHT22;127;48.770;9.212;2023-02-28T04:53:34;-1.60;99.90
285;DHT22;127;48.770;9.212;2023-02-28T04:56:04;-1.70;99.90
285;DHT22;127;48.770;9.212;2023-02-28T04:58:33;-1.60;99.90
285;DHT22;127;48.770;9.212;2023-02-28T05:01:04;-1.60;99.90
285;DHT22;127;48.770;9.212;2023-02-28T05:03:38;-1.70;99.90
285;DHT22;127;48.770;9.212;2023-02-28T05:06:07;-1.70;99.90
285;DHT22;127;48.770;9.212;2023-02-28T05:08:39;-1.70;99.90
285;DHT22;127;48.770;9.212;2023-02-28T05:11:14;-1.60;99.90
285;DHT22;127;48.770;9.212;2023-02-28T05:13:43;-1.60;99.90
285;DHT22;127;48.770;9.212;2023-02-28T05:16:12;-1.70;99.90
285;DHT22;127;48.770;9.212;2023-02-28T05:18:41;-1.70;99.90
285;DHT22;127;48.770;9.212;2023-02-28T05:21:32;-1.60;99.90
285;DHT22;127;48.770;9.212;2023-02-28T05:24:06;-1.50;99.90
285;DHT22;127;48.770;9.212;2023-02-28T05:26:35;-1.40;99.90
285;DHT22;127;48.770;9.212;2023-02-28T05:29:04;-1.50;99.90
285;DHT22;127;48.770;9.212;2023-02-28T05:31:34;-1.40;99.90
285;DHT22;127;48.770;9.212;2023-02-28T05:34:02;-1.60;99.90
285;DHT22;127;48.770;9.212;2023-02-28T05:36:32;-1.50;99.90
285;DHT22;127;48.770;9.212;2023-02-28T05:39:04;-1.50;99.90
285;DHT22;127;48.770;9.212;2023-02-28T05:41:33;-1.50;99.90
285;DHT22;127;48.770;9.212;2023-02-28T05:44:01;-1.40;99.90
285;DHT22;127;48.770;9.212;2023-02-28T05:46:30;-1.50;99.90
285;DHT22;127;48.770;9.212;2023-02-28T05:48:58;-1.40;99.90
285;DHT22;127;48.770;9.212;2023-02-28T05:51:27;-1.30;99.90
285;DHT22;127;48.770;9.212;2023-02-28T05:53:59;-1.40;99.90
285;DHT22;127;48.770;9.212;2023-02-28T05:56:31;-1.40;99.90
285;DHT22;127;48.770;9.212;2023-02-28T05:59:00;-1.50;99.90
285;DHT22;127;48.770;9.212;2023-02-28T06:01:33;-1.40;99.90
285;DHT22;127;48.770;9.212;2023-02-28T06:04:04;-1.40;99.90
285;DHT22;127;48.770;9.212;2023-02-28T06:06:33;-1.40;99.90
285;DHT22;127;48.770;9.212;2023-02-28T06:09:02;-1.40;99.90
285;DHT22;127;48.770;9.212;2023-02-28T06:11:34;-1.30;99.90
285;DHT22;127;48.770;9.212;2023-02-28T06:14:03;-1.30;99.90
285;DHT22;127;48.770;9.212;2023-02-28T06:16:33;-1.30;99.90
285;DHT22;127;48.770;9.212;2023-02-28T06:19:03;-1.30;99.90
285;DHT22;127;48.770;9.212;2023-02-28T06:21:31;-1.10;99.90
285;DHT22;127;48.770;9.212;2023-02-28T06:24:00;-1.10;99.90
285;DHT22;127;48.770;9.212;2023-02-28T06:26:30;-1.10;99.90
285;DHT22;127;48.770;9.212;2023-02-28T06:29:01;-1.10;99.90
285;DHT22;127;48.770;9.212;2023-02-28T06:31:30;-1.10;99.90
285;DHT22;127;48.770;9.212;2023-02-28T06:33:58;-1.10;99.90
285;DHT22;127;48.770;9.212;2023-02-28T06:36:27;-1.10;99.90
285;DHT22;127;48.770;9.212;2023-02-28T06:38:56;-1.00;99.90
285;DHT22;127;48.770;9.212;2023-02-28T06:41:26;-1.00;99.90
285;DHT22;127;48.770;9.212;2023-02-28T06:43:55;-1.00;99.90
285;DHT22;127;48.770;9.212;2023-02-28T06:46:26;-1.00;99.90
285;DHT22;127;48.770;9.212;2023-02-28T06:48:54;-0.90;99.90
285;DHT22;127;48.770;9.212;2023-02-28T06:51:23;-1.00;99.90
285;DHT22;127;48.770;9.212;2023-02-28T06:53:52;-0.90;99.90
285;DHT22;127;48.770;9.212;2023-02-28T06:56:21;-0.90;99.90
285;DHT22;127;48.770;9.212;2023-02-28T06:58:50;-0.80;99.90
285;DHT22;127;48.770;9.212;2023-02-28T07:01:19;-0.90;99.90
285;DHT22;127;48.770;9.212;2023-02-28T07:03:52;-0.70;99.90
285;DHT22;127;48.770;9.212;2023-02-28T07:06:22;-0.70;99.90
285;DHT22;127;48.770;9.212;2023-02-28T07:08:51;-0.80;99.90
285;DHT22;127;48.770;9.212;2023-02-28T07:11:21;-0.80;99.90
285;DHT22;127;48.770;9.212;2023-02-28T07:13:51;-0.70;99.90
285;DHT22;127;48.770;9.212;2023-02-28T07:16:19;-0.70;99.90
285;DHT22;127;48.770;9.212;2023-02-28T07:18:48;-0.60;99.90
285;DHT22;127;48.770;9.212;2023-02-28T07:21:19;-0.60;99.90
285;DHT22;127;48.770;9.212;2023-02-28T07:23:48;-0.70;99.90
285;DHT22;127;48.770;9.212;2023-02-28T07:26:18;-0.60;99.90
285;DHT22;127;48.770;9.212;2023-02-28T07:28:48;-0.50;99.90
285;DHT22;127;48.770;9.212;2023-02-28T07:31:17;-0.50;99.90
285;DHT22;127;48.770;9.212;2023-02-28T07:33:46;-0.50;99.90
285;DHT22;127;48.770;9.212;2023-02-28T07:36:19;-0.50;99.90
285;DHT22;127;48.770;9.212;2023-02-28T07:38:48;-0.50;99.90
285;DHT22;127;48.770;9.212;2023-02-28T07:41:20;-0.50;99.90
285;DHT22;127;48.770;9.212;2023-02-28T07:43:52;-0.40;99.90
285;DHT22;127;48.770;9.212;2023-02-28T07:46:22;-0.50;99.90
285;DHT22;127;48.770;9.212;2023-02-28T07:48:51;-0.60;99.90
285;DHT22;127;48.770;9.212;2023-02-28T07:51:27;-0.50;99.90
285;DHT22;127;48.770;9.212;2023-02-28T07:53:56;-0.70;99.90
285;DHT22;127;48.770;9.212;2023-02-28T07:56:24;-0.60;99.90
285;DHT22;127;48.770;9.212;2023-02-28T07:58:53;-0.50;99.90
285;DHT22;127;48.770;9.212;2023-02-28T08:01:22;-0.50;99.90
285;DHT22;127;48.770;9.212;2023-02-28T08:03:50;-0.40;99.90
285;DHT22;127;48.770;9.212;2023-02-28T08:06:21;-0.20;99.90
285;DHT22;127;48.770;9.212;2023-02-28T08:08:53;-0.30;99.90
285;DHT22;127;48.770;9.212;2023-02-28T08:11:22;-0.30;99.90
285;DHT22;127;48.770;9.212;2023-02-28T08:13:51;-0.20;99.90
285;DHT22;127;48.770;9.212;2023-02-28T08:16:19;-0.10;99.90
285;DHT22;127;48.770;9.212;2023-02-28T08:18:50;-0.20;99.90
285;DHT22;127;48.770;9.212;2023-02-28T08:21:19;-0.10;99.90
285;DHT22;127;48.770;9.212;2023-02-28T08:23:49;0.00;99.90
285;DHT22;127;48.770;9.212;2023-02-28T08:26:20;-0.10;99.90
285;DHT22;127;48.770;9.212;2023-02-28T08:28:49;0.00;99.90
285;DHT22;127;48.770;9.212;2023-02-28T08:31:18;0.00;99.90
285;DHT22;127;48.770;9.212;2023-02-28T08:33:48;0.00;99.90
285;DHT22;127;48.770;9.212;2023-02-28T08:36:19;-0.30;99.90
285;DHT22;127;48.770;9.212;2023-02-28T08:38:48;-0.10;99.90
285;DHT22;127;48.770;9.212;2023-02-28T08:41:16;-0.10;99.90
285;DHT22;127;48.770;9.212;2023-02-28T08:43:47;-0.10;99.90
285;DHT22;127;48.770;9.212;2023-02-28T08:46:16;-0.10;99.90
285;DHT22;127;48.770;9.212;2023-02-28T08:48:45;0.00;99.90
285;DHT22;127;48.770;9.212;2023-02-28T08:51:15;0.10;99.90
285;DHT22;127;48.770;9.212;2023-02-28T08:53:47;0.20;99.90
285;DHT22;127;48.770;9.212;2023-02-28T08:56:17;0.50;99.90
285;DHT22;127;48.770;9.212;2023-02-28T08:58:49;0.50;99.90
285;DHT22;127;48.770;9.212;2023-02-28T09:01:22;0.70;99.90
285;DHT22;127;48.770;9.212;2023-02-28T09:03:53;0.90;99.90
285;DHT22;127;48.770;9.212;2023-02-28T09:06:24;0.60;99.90
285;DHT22;127;48.770;9.212;2023-02-28T09:08:52;0.70;99.90
285;DHT22;127;48.770;9.212;2023-02-28T09:11:22;0.80;99.90
285;DHT22;127;48.770;9.212;2023-02-28T09:13:53;0.90;99.90
285;DHT22;127;48.770;9.212;2023-02-28T09:16:27;0.80;99.90
285;DHT22;127;48.770;9.212;2023-02-28T09:18:56;1.00;99.90
285;DHT22;127;48.770;9.212;2023-02-28T09:21:25;1.00;99.90
285;DHT22;127;48.770;9.212;2023-02-28T09:23:54;0.70;99.90
285;DHT22;127;48.770;9.212;2023-02-28T09:26:24;0.60;99.90
285;DHT22;127;48.770;9.212;2023-02-28T09:28:55;0.80;99.90
285;DHT22;127;48.770;9.212;2023-02-28T09:31:26;1.00;99.90
285;DHT22;127;48.770;9.212;2023-02-28T09:33:58;1.00;99.90
285;DHT22;127;48.770;9.212;2023-02-28T09:36:27;1.00;99.90
285;DHT22;127;48.770;9.212;2023-02-28T09:38:56;1.20;99.90
285;DHT22;127;48.770;9.212;2023-02-28T09:41:26;1.00;99.90
285;DHT22;127;48.770;9.212;2023-02-28T09:44:02;0.80;99.90
285;DHT22;127;48.770;9.212;2023-02-28T09:46:37;1.10;99.90
285;DHT22;127;48.770;9.212;2023-02-28T09:49:11;1.30;99.90
285;DHT22;127;48.770;9.212;2023-02-28T09:51:47;1.30;99.90
285;DHT22;127;48.770;9.212;2023-02-28T09:54:19;1.30;99.90
285;DHT22;127;48.770;9.212;2023-02-28T09:56:50;1.20;99.90
285;DHT22;127;48.770;9.212;2023-02-28T10:02:47;1.40;99.90
285;DHT22;127;48.770;9.212;2023-02-28T10:05:20;1.10;99.90
285;DHT22;127;48.770;9.212;2023-02-28T10:08:02;1.20;99.90
285;DHT22;127;48.770;9.212;2023-02-28T10:10:35;1.30;99.90
285;DHT22;127;48.770;9.212;2023-02-28T10:13:14;1.40;99.90
285;DHT22;127;48.770;9.212;2023-02-28T10:15:48;1.70;99.90
285;DHT22;127;48.770;9.212;2023-02-28T10:18:23;2.00;99.90
285;DHT22;127;48.770;9.212;2023-02-28T10:20:53;2.20;99.90
285;DHT22;127;48.770;9.212;2023-02-28T10:23:26;2.20;99.90
285;DHT22;127;48.770;9.212;2023-02-28T10:25:59;2.30;99.90
285;DHT22;127;48.770;9.212;2023-02-28T10:28:32;2.20;99.90
285;DHT22;127;48.770;9.212;2023-02-28T10:31:03;2.30;99.90
285;DHT22;127;48.770;9.212;2023-02-28T10:33:34;2.50;99.90
285;DHT22;127;48.770;9.212;2023-02-28T10:36:04;2.80;99.90
285;DHT22;127;48.770;9.212;2023-02-28T10:38:35;3.10;99.90
285;DHT22;127;48.770;9.212;2023-02-28T10:41:05;3.20;99.90
285;DHT22;127;48.770;9.212;2023-02-28T10:43:34;3.20;99.90
285;DHT22;127;48.770;9.212;2023-02-28T10:46:12;3.40;99.90
285;DHT22;127;48.770;9.212;2023-02-28T10:49:00;3.30;99.90
285;DHT22;127;48.770;9.212;2023-02-28T10:51:36;3.60;99.90
285;DHT22;127;48.770;9.212;2023-02-28T10:54:05;3.50;99.90
285;DHT22;127;48.770;9.212;2023-02-28T10:56:34;3.30;99.90
285;DHT22;127;48.770;9.212;2023-02-28T10:59:28;3.20;99.90
285;DHT22;127;48.770;9.212;2023-02-28T11:01:54;3.30;99.90
285;DHT22;127;48.770;9.212;2023-02-28T11:04:34;2.90;99.90
285;DHT22;127;48.770;9.212;2023-02-28T11:07:17;2.70;99.90
285;DHT22;127;48.770;9.212;2023-02-28T11:09:48;3.00;99.90
285;DHT22;127;48.770;9.212;2023-02-28T11:12:21;3.20;99.90
285;DHT22;127;48.770;9.212;2023-02-28T11:14:53;3.60;99.90
285;DHT22;127;48.770;9.212;2023-02-28T11:17:27;4.60;99.90
285;DHT22;127;48.770;9.212;2023-02-28T11:19:58;6.30;99.90
285;DHT22;127;48.770;9.212;2023-02-28T11:22:32;8.00;99.90
285;DHT22;127;48.770;9.212;2023-02-28T11:25:07;9.80;99.90
285;DHT22;127;48.770;9.212;2023-02-28T11:27:47;11.80;99.90
285;DHT22;127;48.770;9.212;2023-02-28T11:30:27;10.80;99.90
285;DHT22;127;48.770;9.212;2023-02-28T11:33:00;11.10;99.90
285;DHT22;127;48.770;9.212;2023-02-28T11:35:31;12.40;99.90
285;DHT22;127;48.770;9.212;2023-02-28T11:38:01;12.10;99.90
285;DHT22;127;48.770;9.212;2023-02-28T11:40:36;10.10;99.90
285;DHT22;127;48.770;9.212;2023-02-28T11:43:22;11.20;99.90
285;DHT22;127;48.770;9.212;2023-02-28T11:46:06;10.90;99.90
285;DHT22;127;48.770;9.212;2023-02-28T11:48:47;10.30;99.90
285;DHT22;127;48.770;9.212;2023-02-28T11:51:21;10.80;99.90
285;DHT22;127;48.770;9.212;2023-02-28T11:54:13;10.10;99.90
285;DHT22;127;48.770;9.212;2023-02-28T11:56:49;10.00;99.90
285;DHT22;127;48.770;9.212;2023-02-28T11:59:32;10.20;99.90
285;DHT22;127;48.770;9.212;2023-02-28T12:02:16;10.80;99.90
285;DHT22;127;48.770;9.212;2023-02-28T12:04:55;11.40;99.90
285;DHT22;127;48.770;9.212;2023-02-28T12:07:33;12.80;99.90
285;DHT22;127;48.770;9.212;2023-02-28T12:10:09;12.00;99.90
285;DHT22;127;48.770;9.212;2023-02-28T12:12:48;12.40;99.90
285;DHT22;127;48.770;9.212;2023-02-28T12:15:37;14.00;99.90
285;DHT22;127;48.770;9.212;2023-02-28T12:18:23;13.80;99.90
285;DHT22;127;48.770;9.212;2023-02-28T12:21:04;16.20;99.90
285;DHT22;127;48.770;9.212;2023-02-28T12:23:47;16.20;99.90
285;DHT22;127;48.770;9.212;2023-02-28T12:26:20;15.70;99.90
285;DHT22;127;48.770;9.212;2023-02-28T12:28:53;14.70;99.90
285;DHT22;127;48.770;9.212;2023-02-28T12:31:24;12.40;99.90
285;DHT22;127;48.770;9.212;2023-02-28T12:33:59;11.00;99.90
285;DHT22;127;48.770;9.212;2023-02-28T12:36:31;11.10;99.90
285;DHT22;127;48.770;9.212;2023-02-28T12:39:06;11.90;99.90
285;DHT22;127;48.770;9.212;2023-02-28T12:41:40;13.10;99.90
285;DHT22;127;48.770;9.212;2023-02-28T12:44:13;13.40;99.90
285;DHT22;127;48.770;9.212;2023-02-28T12:46:45;13.00;99.90
285;DHT22;127;48.770;9.212;2023-02-28T12:49:19;13.70;99.90
285;DHT22;127;48.770;9.212;2023-02-28T12:51:53;15.70;99.90
285;DHT22;127;48.770;9.212;2023-02-28T12:54:26;15.30;99.90
285;DHT22;127;48.770;9.212;2023-02-28T12:57:01;13.20;99.90
285;DHT22;127;48.770;9.212;2023-02-28T12:59:36;13.10;99.90
285;DHT22;127;48.770;9.212;2023-02-28T13:05:28;15.00;99.90
285;DHT22;127;48.770;9.212;2023-02-28T13:11:24;15.70;99.90
285;DHT22;127;48.770;9.212;2023-02-28T13:13:58;17.60;99.90
285;DHT22;127;48.770;9.212;2023-02-28T13:16:27;17.40;99.90
285;DHT22;127;48.770;9.212;2023-02-28T13:19:09;16.40;99.90
285;DHT22;127;48.770;9.212;2023-02-28T13:21:43;16.50;99.90
285;DHT22;127;48.770;9.212;2023-02-28T13:24:42;16.20;99.90
285;DHT22;127;48.770;9.212;2023-02-28T13:27:32;14.30;99.90
285;DHT22;127;48.770;9.212;2023-02-28T13:30:02;14.70;99.90
285;DHT22;127;48.770;9.212;2023-02-28T13:33:22;14.60;99.90
285;DHT22;127;48.770;9.212;2023-02-28T13:36:07;14.80;99.90
285;DHT22;127;48.770;9.212;2023-02-28T13:38:40;16.40;99.90
285;DHT22;127;48.770;9.212;2023-02-28T13:44:13;15.30;99.90
285;DHT22;127;48.770;9.212;2023-02-28T13:49:40;15.30;99.90
285;DHT22;127;48.770;9.212;2023-02-28T13:52:14;16.20;99.90
285;DHT22;127;48.770;9.212;2023-02-28T13:57:45;15.10;99.90
285;DHT22;127;48.770;9.212;2023-02-28T14:00:29;14.70;99.90
285;DHT22;127;48.770;9.212;2023-02-28T14:03:24;14.60;99.90
285;DHT22;127;48.770;9.212;2023-02-28T14:06:13;13.40;99.90
285;DHT22;127;48.770;9.212;2023-02-28T14:08:51;14.50;99.90
285;DHT22;127;48.770;9.212;2023-02-28T14:11:27;14.50;99.90
285;DHT22;127;48.770;9.212;2023-02-28T14:13:57;14.30;99.90
285;DHT22;127;48.770;9.212;2023-02-28T14:16:36;14.80;99.90
285;DHT22;127;48.770;9.212;2023-02-28T14:19:12;12.60;99.90
285;DHT22;127;48.770;9.212;2023-02-28T14:21:52;14.10;99.90
285;DHT22;127;48.770;9.212;2023-02-28T14:24:49;14.10;99.90
285;DHT22;127;48.770;9.212;2023-02-28T14:27:38;12.90;99.90
285;DHT22;127;48.770;9.212;2023-02-28T14:30:30;14.00;99.90
285;DHT22;127;48.770;9.212;2023-02-28T14:33:18;14.30;99.90
285;DHT22;127;48.770;9.212;2023-02-28T14:38:45;15.60;99.90
285;DHT22;127;48.770;9.212;2023-02-28T14:41:20;14.50;99.90
285;DHT22;127;48.770;9.212;2023-02-28T14:43:54;13.70;99.90
285;DHT22;127;48.770;9.212;2023-02-28T14:46:26;14.40;99.90
285;DHT22;127;48.770;9.212;2023-02-28T14:48:58;13.70;99.90
285;DHT22;127;48.770;9.212;2023-02-28T14:51:27;12.30;99.90
285;DHT22;127;48.770;9.212;2023-02-28T14:53:59;12.00;99.90
285;DHT22;127;48.770;9.212;2023-02-28T14:56:30;12.90;99.90
285;DHT22;127;48.770;9.212;2023-02-28T14:59:01;13.20;99.90
285;DHT22;127;48.770;9.212;2023-02-28T15:01:29;12.90;99.90
285;DHT22;127;48.770;9.212;2023-02-28T15:04:04;12.40;99.90
285;DHT22;127;48.770;9.212;2023-02-28T15:06:33;12.50;99.90
285;DHT22;127;48.770;9.212;2023-02-28T15:09:14;12.30;99.90
285;DHT22;127;48.770;9.212;2023-02-28T15:11:47;12.00;99.90
285;DHT22;127;48.770;9.212;2023-02-28T15:14:21;12.30;99.90
285;DHT22;127;48.770;9.212;2023-02-28T15:16:56;12.00;99.90
285;DHT22;127;48.770;9.212;2023-02-28T15:19:31;12.50;99.90
285;DHT22;127;48.770;9.212;2023-02-28T15:22:04;12.70;99.90
285;DHT22;127;48.770;9.212;2023-02-28T15:24:37;12.60;99.90
285;DHT22;127;48.770;9.212;2023-02-28T15:27:11;12.40;99.90
285;DHT22;127;48.770;9.212;2023-02-28T15:29:47;12.30;99.90
285;DHT22;127;48.770;9.212;2023-02-28T15:32:25;12.20;99.90
285;DHT22;127;48.770;9.212;2023-02-28T15:34:59;10.20;99.90
285;DHT22;127;48.770;9.212;2023-02-28T15:37:40;9.70;99.90
285;DHT22;127;48.770;9.212;2023-02-28T15:40:16;9.80;99.90
285;DHT22;127;48.770;9.212;2023-02-28T15:42:59;10.10;99.90
285;DHT22;127;48.770;9.212;2023-02-28T15:45:32;10.40;99.90
285;DHT22;127;48.770;9.212;2023-02-28T15:48:05;10.60;99.90
285;DHT22;127;48.770;9.212;2023-02-28T15:50:36;10.00;99.90
285;DHT22;127;48.770;9.212;2023-02-28T15:53:13;10.00;99.90
285;DHT22;127;48.770;9.212;2023-02-28T15:55:42;10.60;99.90
285;DHT22;127;48.770;9.212;2023-02-28T15:58:12;9.80;99.90
285;DHT22;127;48.770;9.212;2023-02-28T16:00:43;9.00;99.90
285;DHT22;127;48.770;9.212;2023-02-28T16:03:25;10.00;99.90
285;DHT22;127;48.770;9.212;2023-02-28T16:08:54;9.00;99.90
285;DHT22;127;48.770;9.212;2023-02-28T16:11:23;9.60;99.90
285;DHT22;127;48.770;9.212;2023-02-28T16:13:52;9.10;99.90
285;DHT22;127;48.770;9.212;2023-02-28T16:16:23;8.70;99.90
285;DHT22;127;48.770;9.212;2023-02-28T16:18:52;8.70;99.90
285;DHT22;127;48.770;9.212;2023-02-28T16:21:21;8.80;99.90
285;DHT22;127;48.770;9.212;2023-02-28T16:23:50;8.80;99.90
285;DHT22;127;48.770;9.212;2023-02-28T16:26:23;8.70;99.90
285;DHT22;127;48.770;9.212;2023-02-28T16:28:54;8.30;99.90
285;DHT22;127;48.770;9.212;2023-02-28T16:31:22;8.00;99.90
285;DHT22;127;48.770;9.212;2023-02-28T16:33:51;7.80;99.90
285;DHT22;127;48.770;9.212;2023-02-28T16:36:22;7.50;99.90
285;DHT22;127;48.770;9.212;2023-02-28T16:38:51;7.40;99.90
285;DHT22;127;48.770;9.212;2023-02-28T16:41:24;7.40;99.90
285;DHT22;127;48.770;9.212;2023-02-28T16:43:54;7.00;99.90
285;DHT22;127;48.770;9.212;2023-02-28T16:46:29;6.60;99.90
285;DHT22;127;48.770;9.212;2023-02-28T16:48:58;6.10;99.90
285;DHT22;127;48.770;9.212;2023-02-28T16:51:27;5.90;99.90
285;DHT22;127;48.770;9.212;2023-02-28T16:53:55;5.90;99.90
285;DHT22;127;48.770;9.212;2023-02-28T16:56:27;5.50;99.90
285;DHT22;127;48.770;9.212;2023-02-28T16:58:59;5.50;99.90
285;DHT22;127;48.770;9.212;2023-02-28T17:01:28;5.10;99.90
285;DHT22;127;48.770;9.212;2023-02-28T17:03:57;4.80;99.90
285;DHT22;127;48.770;9.212;2023-02-28T17:06:27;4.80;99.90
285;DHT22;127;48.770;9.212;2023-02-28T17:08:57;4.50;99.90
285;DHT22;127;48.770;9.212;2023-02-28T17:11:28;4.10;99.90
285;DHT22;127;48.770;9.212;2023-02-28T17:13:58;4.00;99.90
285;DHT22;127;48.770;9.212;2023-02-28T17:16:28;3.80;99.90
285;DHT22;127;48.770;9.212;2023-02-28T17:18:59;3.70;99.90
285;DHT22;127;48.770;9.212;2023-02-28T17:21:29;3.50;99.90
285;DHT22;127;48.770;9.212;2023-02-28T17:23:59;3.10;99.90
285;DHT22;127;48.770;9.212;2023-02-28T17:26:30;3.10;99.90
285;DHT22;127;48.770;9.212;2023-02-28T17:28:59;2.90;99.90
285;DHT22;127;48.770;9.212;2023-02-28T17:31:27;2.90;99.90
285;DHT22;127;48.770;9.212;2023-02-28T17:33:58;2.80;99.90
285;DHT22;127;48.770;9.212;2023-02-28T17:36:27;2.70;99.90
285;DHT22;127;48.770;9.212;2023-02-28T17:38:56;2.60;99.90
285;DHT22;127;48.770;9.212;2023-02-28T17:41:25;2.40;99.90
285;DHT22;127;48.770;9.212;2023-02-28T17:43:58;2.40;99.90
285;DHT22;127;48.770;9.212;2023-02-28T17:46:27;2.40;99.90
285;DHT22;127;48.770;9.212;2023-02-28T17:48:55;2.30;99.90
285;DHT22;127;48.770;9.212;2023-02-28T17:51:24;2.20;99.90
285;DHT22;127;48.770;9.212;2023-02-28T17:53:53;2.00;99.90
285;DHT22;127;48.770;9.212;2023-02-28T17:56:23;2.10;99.90